Ballinger, TX

6:29 AM CDT on July 26, 2014 (GMT -0500)
Dyess Air Force Base (KDYS) Elev 1788 ft | 32.42 °N, 99.85 °W | Change Station

Current weather conditions updated 31 minutes ago

Clear
Clear
78 °F
Feels Like 78 °F
N
13
Wind Variable Wind from South

Today is forecast to be Warmer than yesterday.

Today
High -- | Low -- °F
--% Chance of Precip.
Yesterday
High -- | Low -- °F
Precip. -- in
6:51 AM 8:40 PM
Waning Crescent, 0% visible
Pressure 29.82 in
Visibility 10.0 miles
Clouds Clear
Dew Point 65 °F
Humidity 64%
Rainfall 0.00 in
Snow Depth Not available.
UV 0 out of 12
Pollen 6.20 out of 12
Air Quality Not available.
Flu Activity Not available.
METAR KDYS 261058Z AUTO 18011KT 10SM CLR 26/18 A2997 RMK AO2 SLP096 T02550182 $

More Conditions Fewer Conditions

Pressure 29.82 in
Visibility 10.0 miles
Clouds Clear
Dew Point 65 °F
Humidity 64%
Rainfall 0.00 in
Snow Depth Not available.
UV 0 out of 12
Pollen 6.20 out of 12
Air Quality Not available.
Flu Activity Not available.
METAR KDYS 261058Z AUTO 18011KT 10SM CLR 26/18 A2997 RMK AO2 SLP096 T02550182 $

More Conditions Fewer Conditions

10-Day Weather Forecast

Almanac

Astronomy

Jul. 26, 2014 Rise Set
Actual Time 6:51 AM CDT 8:40 PM CDT
Civil Twilight 6:24 AM CDT 9:07 PM CDT
Nautical Twilight 5:52 AM CDT 9:39 PM CDT
Astronomical Twilight 5:18 AM CDT 10:14 PM CDT
Moon 6:41 AM CDT 8:21 PM CDT
Length of Visible Light 14h 42m
Length of Day
13h 48m
Tomorrow will be 1m 18s shorter.
Waning Crescent, 0% of the Moon is Illuminated
Today
Waning Crescent
Jul 26
New
Aug 3
First Quarter
Aug 10
Full
Aug 17
Last Quarter

Today's Extremes

State Highs State Lows

Community

WunderPhotos

Upload Photos

1,737,538 photos uploaded!

Nearby

Snow Depth

Station Depth Elevation
No new snow has been reported.

Earthquake Activity

City Distance Mag. Time & Date
No recent earthquake activity has been reported nearby.
Minimum magnitude displayed is 2.5.

Coastal Water Temperatures

Place Temperature
No Stations Reporting

Nearby Weather Stations

Station Location Temp. Heat Index Dew Point Humidity Wind Precip. Elev Updated Type
Concho Estates East, Miles, TX 73.6 °F 74 °F 67 °F 79% SSW  at  0.0 mph 0.00 in / hr 1759 ft 6:29 AM CDT Normal
LCRA Hords Creek Lake near Valera, Valera, TX 75 °F 77 °F 64 °F 68% North  at  - 0.00 in / hr 1902 ft 5:30 AM CDT MADIS
LCRA Millersview 7 WSW, Paint Rock, TX 76 °F 78 °F 63 °F 63% North  at  - 0.00 in / hr 1818 ft 4:45 AM CDT MADIS

Show More Stations Show Fewer Stations